sensor_id;sensor_type;location;lat;lon;timestamp;P1;durP1;ratioP1;P2;durP2;ratioP2
4468;SDS011;2247;42.666;23.292;2023-04-24T00:01:40;11.67;;;8.77;;
4468;SDS011;2247;42.666;23.292;2023-04-24T00:04:07;18.67;;;8.70;;
4468;SDS011;2247;42.666;23.292;2023-04-24T00:06:36;12.70;;;8.00;;
4468;SDS011;2247;42.666;23.292;2023-04-24T00:09:03;15.27;;;9.23;;
4468;SDS011;2247;42.666;23.292;2023-04-24T00:11:30;16.60;;;9.13;;
4468;SDS011;2247;42.666;23.292;2023-04-24T00:13:57;17.17;;;9.60;;
4468;SDS011;2247;42.666;23.292;2023-04-24T00:16:26;12.80;;;8.97;;
4468;SDS011;2247;42.666;23.292;2023-04-24T00:18:53;13.20;;;8.90;;
4468;SDS011;2247;42.666;23.292;2023-04-24T00:21:20;15.53;;;9.53;;
4468;SDS011;2247;42.666;23.292;2023-04-24T00:23:50;16.10;;;9.20;;
4468;SDS011;2247;42.666;23.292;2023-04-24T00:26:17;15.90;;;9.10;;
4468;SDS011;2247;42.666;23.292;2023-04-24T00:28:44;11.27;;;8.73;;
4468;SDS011;2247;42.666;23.292;2023-04-24T00:31:11;18.23;;;9.13;;
4468;SDS011;2247;42.666;23.292;2023-04-24T00:33:40;15.90;;;9.57;;
4468;SDS011;2247;42.666;23.292;2023-04-24T00:36:07;18.10;;;9.07;;
4468;SDS011;2247;42.666;23.292;2023-04-24T00:38:34;14.40;;;8.73;;
4468;SDS011;2247;42.666;23.292;2023-04-24T00:41:01;10.70;;;8.73;;
4468;SDS011;2247;42.666;23.292;2023-04-24T00:43:28;11.50;;;8.80;;
4468;SDS011;2247;42.666;23.292;2023-04-24T00:45:55;17.53;;;9.67;;
4468;SDS011;2247;42.666;23.292;2023-04-24T00:48:22;10.53;;;8.10;;
4468;SDS011;2247;42.666;23.292;2023-04-24T00:50:51;14.30;;;8.90;;
4468;SDS011;2247;42.666;23.292;2023-04-24T00:53:18;14.57;;;8.33;;
4468;SDS011;2247;42.666;23.292;2023-04-24T00:55:45;11.10;;;8.97;;
4468;SDS011;2247;42.666;23.292;2023-04-24T00:58:12;13.50;;;9.30;;
4468;SDS011;2247;42.666;23.292;2023-04-24T01:00:39;12.20;;;8.60;;
4468;SDS011;2247;42.666;23.292;2023-04-24T01:03:07;14.27;;;9.20;;
4468;SDS011;2247;42.666;23.292;2023-04-24T01:05:34;15.40;;;10.30;;
4468;SDS011;2247;42.666;23.292;2023-04-24T01:08:02;13.20;;;9.63;;
4468;SDS011;2247;42.666;23.292;2023-04-24T01:10:29;15.93;;;9.87;;
4468;SDS011;2247;42.666;23.292;2023-04-24T01:12:59;16.30;;;10.30;;
4468;SDS011;2247;42.666;23.292;2023-04-24T01:15:26;12.40;;;9.23;;
4468;SDS011;2247;42.666;23.292;2023-04-24T01:17:53;15.13;;;10.20;;
4468;SDS011;2247;42.666;23.292;2023-04-24T01:20:19;13.40;;;9.40;;
4468;SDS011;2247;42.666;23.292;2023-04-24T01:22:48;15.63;;;8.17;;
4468;SDS011;2247;42.666;23.292;2023-04-24T01:25:15;17.63;;;6.60;;
4468;SDS011;2247;42.666;23.292;2023-04-24T01:27:42;9.70;;;7.10;;
4468;SDS011;2247;42.666;23.292;2023-04-24T01:30:09;9.97;;;7.63;;
4468;SDS011;2247;42.666;23.292;2023-04-24T01:32:37;9.77;;;6.37;;
4468;SDS011;2247;42.666;23.292;2023-04-24T01:35:05;13.53;;;6.60;;
4468;SDS011;2247;42.666;23.292;2023-04-24T01:37:33;8.13;;;6.17;;
4468;SDS011;2247;42.666;23.292;2023-04-24T01:40:04;13.03;;;7.67;;
4468;SDS011;2247;42.666;23.292;2023-04-24T01:42:32;10.93;;;7.53;;
4468;SDS011;2247;42.666;23.292;2023-04-24T01:44:59;12.47;;;8.13;;
4468;SDS011;2247;42.666;23.292;2023-04-24T01:47:28;10.67;;;8.03;;
4468;SDS011;2247;42.666;23.292;2023-04-24T01:49:56;9.70;;;7.77;;
4468;SDS011;2247;42.666;23.292;2023-04-24T01:52:23;8.83;;;7.80;;
4468;SDS011;2247;42.666;23.292;2023-04-24T01:54:50;10.47;;;6.67;;
4468;SDS011;2247;42.666;23.292;2023-04-24T01:57:20;8.80;;;6.33;;
4468;SDS011;2247;42.666;23.292;2023-04-24T01:59:46;9.80;;;6.10;;
4468;SDS011;2247;42.666;23.292;2023-04-24T02:02:13;10.40;;;6.10;;
4468;SDS011;2247;42.666;23.292;2023-04-24T02:04:40;11.33;;;6.87;;
4468;SDS011;2247;42.666;23.292;2023-04-24T02:07:07;15.93;;;6.53;;
4468;SDS011;2247;42.666;23.292;2023-04-24T02:09:34;11.27;;;6.73;;
4468;SDS011;2247;42.666;23.292;2023-04-24T02:12:01;9.80;;;6.77;;
4468;SDS011;2247;42.666;23.292;2023-04-24T02:14:29;8.67;;;6.43;;
4468;SDS011;2247;42.666;23.292;2023-04-24T02:16:56;9.13;;;8.07;;
4468;SDS011;2247;42.666;23.292;2023-04-24T02:19:23;9.90;;;7.07;;
4468;SDS011;2247;42.666;23.292;2023-04-24T02:21:49;9.97;;;6.50;;
4468;SDS011;2247;42.666;23.292;2023-04-24T02:24:16;7.13;;;6.27;;
4468;SDS011;2247;42.666;23.292;2023-04-24T02:26:43;9.43;;;6.67;;
4468;SDS011;2247;42.666;23.292;2023-04-24T02:29:10;7.73;;;6.40;;
4468;SDS011;2247;42.666;23.292;2023-04-24T02:31:39;7.97;;;6.20;;
4468;SDS011;2247;42.666;23.292;2023-04-24T02:34:05;8.37;;;6.47;;
4468;SDS011;2247;42.666;23.292;2023-04-24T02:36:32;10.20;;;6.87;;
4468;SDS011;2247;42.666;23.292;2023-04-24T02:38:59;14.60;;;5.87;;
4468;SDS011;2247;42.666;23.292;2023-04-24T02:41:26;7.87;;;6.60;;
4468;SDS011;2247;42.666;23.292;2023-04-24T02:43:56;15.23;;;6.27;;
4468;SDS011;2247;42.666;23.292;2023-04-24T02:46:23;7.77;;;6.57;;
4468;SDS011;2247;42.666;23.292;2023-04-24T02:48:52;13.23;;;6.30;;
4468;SDS011;2247;42.666;23.292;2023-04-24T02:51:19;9.37;;;6.67;;
4468;SDS011;2247;42.666;23.292;2023-04-24T02:53:46;9.17;;;7.20;;
4468;SDS011;2247;42.666;23.292;2023-04-24T02:56:13;10.50;;;6.90;;
4468;SDS011;2247;42.666;23.292;2023-04-24T02:58:39;13.77;;;7.47;;
4468;SDS011;2247;42.666;23.292;2023-04-24T03:01:07;14.27;;;7.40;;
4468;SDS011;2247;42.666;23.292;2023-04-24T03:03:34;13.10;;;7.77;;
4468;SDS011;2247;42.666;23.292;2023-04-24T03:06:03;11.10;;;7.80;;
4468;SDS011;2247;42.666;23.292;2023-04-24T03:08:31;11.10;;;7.53;;
4468;SDS011;2247;42.666;23.292;2023-04-24T03:10:58;9.63;;;7.50;;
4468;SDS011;2247;42.666;23.292;2023-04-24T03:13:25;15.40;;;8.60;;
4468;SDS011;2247;42.666;23.292;2023-04-24T03:15:52;17.73;;;7.80;;
4468;SDS011;2247;42.666;23.292;2023-04-24T03:18:19;12.80;;;7.90;;
4468;SDS011;2247;42.666;23.292;2023-04-24T03:20:46;11.57;;;7.60;;
4468;SDS011;2247;42.666;23.292;2023-04-24T03:23:14;12.30;;;8.63;;
4468;SDS011;2247;42.666;23.292;2023-04-24T03:25:41;16.10;;;9.17;;
4468;SDS011;2247;42.666;23.292;2023-04-24T03:28:09;11.20;;;8.40;;
4468;SDS011;2247;42.666;23.292;2023-04-24T03:30:35;12.53;;;8.50;;
4468;SDS011;2247;42.666;23.292;2023-04-24T03:33:02;13.10;;;8.37;;
4468;SDS011;2247;42.666;23.292;2023-04-24T03:35:29;13.17;;;8.23;;
4468;SDS011;2247;42.666;23.292;2023-04-24T03:37:56;14.30;;;9.90;;
4468;SDS011;2247;42.666;23.292;2023-04-24T03:40:24;14.27;;;8.70;;
4468;SDS011;2247;42.666;23.292;2023-04-24T03:42:54;11.13;;;8.77;;
4468;SDS011;2247;42.666;23.292;2023-04-24T03:45:21;16.70;;;9.37;;
4468;SDS011;2247;42.666;23.292;2023-04-24T03:47:48;14.20;;;8.73;;
4468;SDS011;2247;42.666;23.292;2023-04-24T03:50:15;16.40;;;9.10;;
4468;SDS011;2247;42.666;23.292;2023-04-24T03:52:42;15.53;;;8.77;;
4468;SDS011;2247;42.666;23.292;2023-04-24T03:55:08;14.70;;;8.87;;
4468;SDS011;2247;42.666;23.292;2023-04-24T03:57:39;22.17;;;9.70;;
4468;SDS011;2247;42.666;23.292;2023-04-24T04:00:07;11.43;;;7.80;;
4468;SDS011;2247;42.666;23.292;2023-04-24T04:02:34;19.03;;;7.80;;
4468;SDS011;2247;42.666;23.292;2023-04-24T04:05:01;20.97;;;7.80;;
4468;SDS011;2247;42.666;23.292;2023-04-24T04:07:29;9.83;;;8.30;;
4468;SDS011;2247;42.666;23.292;2023-04-24T04:09:55;17.77;;;9.00;;
4468;SDS011;2247;42.666;23.292;2023-04-24T04:12:23;9.63;;;7.87;;
4468;SDS011;2247;42.666;23.292;2023-04-24T04:14:51;11.00;;;8.03;;
4468;SDS011;2247;42.666;23.292;2023-04-24T04:17:18;10.63;;;7.70;;
4468;SDS011;2247;42.666;23.292;2023-04-24T04:19:45;8.93;;;7.97;;
4468;SDS011;2247;42.666;23.292;2023-04-24T04:22:12;13.83;;;8.10;;
4468;SDS011;2247;42.666;23.292;2023-04-24T04:24:38;13.53;;;8.40;;
4468;SDS011;2247;42.666;23.292;2023-04-24T04:27:05;16.77;;;7.80;;
4468;SDS011;2247;42.666;23.292;2023-04-24T04:29:33;10.13;;;7.43;;
4468;SDS011;2247;42.666;23.292;2023-04-24T04:32:02;10.07;;;7.67;;
4468;SDS011;2247;42.666;23.292;2023-04-24T04:34:29;14.53;;;7.60;;
4468;SDS011;2247;42.666;23.292;2023-04-24T04:36:56;27.80;;;8.60;;
4468;SDS011;2247;42.666;23.292;2023-04-24T04:39:26;20.83;;;8.23;;
4468;SDS011;2247;42.666;23.292;2023-04-24T04:41:53;15.23;;;8.50;;
4468;SDS011;2247;42.666;23.292;2023-04-24T04:44:20;14.17;;;8.50;;
4468;SDS011;2247;42.666;23.292;2023-04-24T04:46:48;17.23;;;8.77;;
4468;SDS011;2247;42.666;23.292;2023-04-24T04:49:19;12.37;;;8.00;;
4468;SDS011;2247;42.666;23.292;2023-04-24T04:51:46;14.00;;;8.30;;
4468;SDS011;2247;42.666;23.292;2023-04-24T04:54:14;16.13;;;8.37;;
4468;SDS011;2247;42.666;23.292;2023-04-24T04:56:41;10.60;;;8.13;;
4468;SDS011;2247;42.666;23.292;2023-04-24T04:59:08;18.37;;;9.27;;
4468;SDS011;2247;42.666;23.292;2023-04-24T05:01:36;17.63;;;8.73;;
4468;SDS011;2247;42.666;23.292;2023-04-24T05:04:03;17.10;;;9.17;;
4468;SDS011;2247;42.666;23.292;2023-04-24T05:06:31;13.67;;;8.73;;
4468;SDS011;2247;42.666;23.292;2023-04-24T05:08:58;14.47;;;8.30;;
4468;SDS011;2247;42.666;23.292;2023-04-24T05:11:25;14.60;;;8.10;;
4468;SDS011;2247;42.666;23.292;2023-04-24T05:13:53;9.17;;;6.30;;
4468;SDS011;2247;42.666;23.292;2023-04-24T05:16:20;8.60;;;5.50;;
4468;SDS011;2247;42.666;23.292;2023-04-24T05:18:46;9.57;;;5.17;;
4468;SDS011;2247;42.666;23.292;2023-04-24T05:21:13;7.13;;;5.13;;
4468;SDS011;2247;42.666;23.292;2023-04-24T05:23:42;8.13;;;5.50;;
4468;SDS011;2247;42.666;23.292;2023-04-24T05:26:09;9.53;;;5.50;;
4468;SDS011;2247;42.666;23.292;2023-04-24T05:28:35;6.67;;;5.03;;
4468;SDS011;2247;42.666;23.292;2023-04-24T05:31:02;12.00;;;5.83;;
4468;SDS011;2247;42.666;23.292;2023-04-24T05:33:30;13.37;;;6.67;;
4468;SDS011;2247;42.666;23.292;2023-04-24T05:35:57;8.80;;;5.80;;
4468;SDS011;2247;42.666;23.292;2023-04-24T05:38:23;18.63;;;6.13;;
4468;SDS011;2247;42.666;23.292;2023-04-24T05:40:52;9.50;;;6.30;;
4468;SDS011;2247;42.666;23.292;2023-04-24T05:43:18;12.40;;;6.60;;
4468;SDS011;2247;42.666;23.292;2023-04-24T05:45:45;9.10;;;6.30;;
4468;SDS011;2247;42.666;23.292;2023-04-24T05:48:12;10.73;;;6.60;;
4468;SDS011;2247;42.666;23.292;2023-04-24T05:50:39;18.20;;;6.30;;
4468;SDS011;2247;42.666;23.292;2023-04-24T05:53:06;9.90;;;6.63;;
4468;SDS011;2247;42.666;23.292;2023-04-24T05:55:35;13.70;;;6.40;;
4468;SDS011;2247;42.666;23.292;2023-04-24T05:58:04;9.43;;;6.37;;
4468;SDS011;2247;42.666;23.292;2023-04-24T06:00:31;8.50;;;6.10;;
4468;SDS011;2247;42.666;23.292;2023-04-24T06:03:00;10.80;;;6.87;;
4468;SDS011;2247;42.666;23.292;2023-04-24T06:05:28;17.63;;;7.57;;
4468;SDS011;2247;42.666;23.292;2023-04-24T06:07:55;11.90;;;7.90;;
4468;SDS011;2247;42.666;23.292;2023-04-24T06:10:22;15.10;;;8.00;;
4468;SDS011;2247;42.666;23.292;2023-04-24T06:12:49;12.90;;;6.90;;
4468;SDS011;2247;42.666;23.292;2023-04-24T06:15:18;11.10;;;7.60;;
4468;SDS011;2247;42.666;23.292;2023-04-24T06:17:44;8.23;;;7.30;;
4468;SDS011;2247;42.666;23.292;2023-04-24T06:20:12;15.77;;;7.50;;
4468;SDS011;2247;42.666;23.292;2023-04-24T06:22:38;12.03;;;8.03;;
4468;SDS011;2247;42.666;23.292;2023-04-24T06:25:05;14.60;;;8.47;;
4468;SDS011;2247;42.666;23.292;2023-04-24T06:27:33;13.10;;;7.73;;
4468;SDS011;2247;42.666;23.292;2023-04-24T06:30:01;11.37;;;8.50;;
4468;SDS011;2247;42.666;23.292;2023-04-24T06:32:29;10.27;;;7.73;;
4468;SDS011;2247;42.666;23.292;2023-04-24T06:34:56;12.90;;;7.53;;
4468;SDS011;2247;42.666;23.292;2023-04-24T06:37:24;11.60;;;7.57;;
4468;SDS011;2247;42.666;23.292;2023-04-24T06:39:51;8.57;;;7.50;;
4468;SDS011;2247;42.666;23.292;2023-04-24T06:42:18;15.17;;;9.03;;
4468;SDS011;2247;42.666;23.292;2023-04-24T06:44:45;16.83;;;8.90;;
4468;SDS011;2247;42.666;23.292;2023-04-24T06:47:13;13.73;;;8.63;;
4468;SDS011;2247;42.666;23.292;2023-04-24T06:49:42;13.40;;;8.90;;
4468;SDS011;2247;42.666;23.292;2023-04-24T06:52:09;17.73;;;7.37;;
4468;SDS011;2247;42.666;23.292;2023-04-24T06:54:36;18.33;;;8.90;;
4468;SDS011;2247;42.666;23.292;2023-04-24T06:57:03;29.67;;;11.30;;
4468;SDS011;2247;42.666;23.292;2023-04-24T06:59:29;21.10;;;10.20;;
4468;SDS011;2247;42.666;23.292;2023-04-24T07:01:56;19.40;;;8.97;;
4468;SDS011;2247;42.666;23.292;2023-04-24T07:04:24;16.43;;;8.50;;
4468;SDS011;2247;42.666;23.292;2023-04-24T07:06:53;15.60;;;8.77;;
4468;SDS011;2247;42.666;23.292;2023-04-24T07:09:21;12.53;;;9.50;;
4468;SDS011;2247;42.666;23.292;2023-04-24T07:11:49;26.87;;;9.87;;
4468;SDS011;2247;42.666;23.292;2023-04-24T07:14:16;11.30;;;8.50;;
4468;SDS011;2247;42.666;23.292;2023-04-24T07:16:43;20.70;;;8.50;;
4468;SDS011;2247;42.666;23.292;2023-04-24T07:19:11;14.53;;;8.43;;
4468;SDS011;2247;42.666;23.292;2023-04-24T07:21:38;12.17;;;8.70;;
4468;SDS011;2247;42.666;23.292;2023-04-24T07:24:07;25.07;;;8.60;;
4468;SDS011;2247;42.666;23.292;2023-04-24T07:26:38;10.63;;;8.60;;
4468;SDS011;2247;42.666;23.292;2023-04-24T07:29:05;12.13;;;8.00;;
4468;SDS011;2247;42.666;23.292;2023-04-24T07:31:32;10.33;;;8.63;;
4468;SDS011;2247;42.666;23.292;2023-04-24T07:33:59;10.43;;;6.90;;
4468;SDS011;2247;42.666;23.292;2023-04-24T07:36:26;9.67;;;6.40;;
4468;SDS011;2247;42.666;23.292;2023-04-24T07:38:53;9.23;;;7.03;;
4468;SDS011;2247;42.666;23.292;2023-04-24T07:41:22;18.10;;;7.30;;
4468;SDS011;2247;42.666;23.292;2023-04-24T07:43:49;11.23;;;7.00;;
4468;SDS011;2247;42.666;23.292;2023-04-24T07:46:16;13.80;;;7.13;;
4468;SDS011;2247;42.666;23.292;2023-04-24T07:48:45;13.40;;;7.50;;
4468;SDS011;2247;42.666;23.292;2023-04-24T07:51:13;9.27;;;7.43;;
4468;SDS011;2247;42.666;23.292;2023-04-24T07:53:40;15.80;;;7.60;;
4468;SDS011;2247;42.666;23.292;2023-04-24T07:56:07;9.83;;;7.07;;
4468;SDS011;2247;42.666;23.292;2023-04-24T07:58:36;11.07;;;7.40;;
4468;SDS011;2247;42.666;23.292;2023-04-24T08:01:03;9.07;;;7.10;;
4468;SDS011;2247;42.666;23.292;2023-04-24T08:03:30;11.90;;;7.10;;
4468;SDS011;2247;42.666;23.292;2023-04-24T08:05:57;15.10;;;7.80;;
4468;SDS011;2247;42.666;23.292;2023-04-24T08:08:24;10.50;;;6.50;;
4468;SDS011;2247;42.666;23.292;2023-04-24T08:10:51;14.93;;;7.67;;
4468;SDS011;2247;42.666;23.292;2023-04-24T08:13:19;11.27;;;7.33;;
4468;SDS011;2247;42.666;23.292;2023-04-24T08:15:48;11.83;;;7.60;;
4468;SDS011;2247;42.666;23.292;2023-04-24T08:18:15;12.73;;;7.00;;
4468;SDS011;2247;42.666;23.292;2023-04-24T08:20:42;11.47;;;7.40;;
4468;SDS011;2247;42.666;23.292;2023-04-24T08:23:10;11.07;;;7.10;;
4468;SDS011;2247;42.666;23.292;2023-04-24T08:25:37;8.80;;;7.30;;
4468;SDS011;2247;42.666;23.292;2023-04-24T08:28:05;12.30;;;7.60;;
4468;SDS011;2247;42.666;23.292;2023-04-24T08:30:32;10.30;;;7.07;;
4468;SDS011;2247;42.666;23.292;2023-04-24T08:33:00;9.20;;;6.90;;
4468;SDS011;2247;42.666;23.292;2023-04-24T08:35:27;10.10;;;7.27;;
4468;SDS011;2247;42.666;23.292;2023-04-24T08:37:55;13.17;;;7.00;;
4468;SDS011;2247;42.666;23.292;2023-04-24T08:40:22;11.10;;;7.10;;
4468;SDS011;2247;42.666;23.292;2023-04-24T08:42:54;9.20;;;6.40;;
4468;SDS011;2247;42.666;23.292;2023-04-24T08:45:22;11.17;;;6.97;;
4468;SDS011;2247;42.666;23.292;2023-04-24T08:47:51;11.80;;;7.87;;
4468;SDS011;2247;42.666;23.292;2023-04-24T08:50:20;12.53;;;7.70;;
4468;SDS011;2247;42.666;23.292;2023-04-24T08:52:49;16.10;;;7.70;;
4468;SDS011;2247;42.666;23.292;2023-04-24T08:55:18;12.30;;;6.90;;
4468;SDS011;2247;42.666;23.292;2023-04-24T08:57:45;10.97;;;7.53;;
4468;SDS011;2247;42.666;23.292;2023-04-24T09:00:17;10.77;;;7.50;;
4468;SDS011;2247;42.666;23.292;2023-04-24T09:02:46;9.03;;;7.07;;
4468;SDS011;2247;42.666;23.292;2023-04-24T09:05:16;14.30;;;7.40;;
4468;SDS011;2247;42.666;23.292;2023-04-24T09:07:47;9.93;;;6.97;;
4468;SDS011;2247;42.666;23.292;2023-04-24T09:10:19;10.00;;;7.33;;
4468;SDS011;2247;42.666;23.292;2023-04-24T09:12:47;9.60;;;7.10;;
4468;SDS011;2247;42.666;23.292;2023-04-24T09:15:14;8.00;;;6.23;;
4468;SDS011;2247;42.666;23.292;2023-04-24T09:17:41;8.47;;;7.13;;
4468;SDS011;2247;42.666;23.292;2023-04-24T09:20:09;10.77;;;7.33;;
4468;SDS011;2247;42.666;23.292;2023-04-24T09:22:37;12.07;;;7.43;;
4468;SDS011;2247;42.666;23.292;2023-04-24T09:25:06;10.20;;;6.50;;
4468;SDS011;2247;42.666;23.292;2023-04-24T09:27:34;10.93;;;7.80;;
4468;SDS011;2247;42.666;23.292;2023-04-24T09:30:02;15.67;;;6.50;;
4468;SDS011;2247;42.666;23.292;2023-04-24T09:32:29;12.93;;;7.60;;
4468;SDS011;2247;42.666;23.292;2023-04-24T09:35:07;10.27;;;6.90;;
4468;SDS011;2247;42.666;23.292;2023-04-24T09:37:37;9.13;;;6.40;;
4468;SDS011;2247;42.666;23.292;2023-04-24T09:40:11;7.77;;;6.53;;
4468;SDS011;2247;42.666;23.292;2023-04-24T09:42:40;8.40;;;6.40;;
4468;SDS011;2247;42.666;23.292;2023-04-24T09:45:10;12.53;;;6.80;;
4468;SDS011;2247;42.666;23.292;2023-04-24T09:47:37;12.73;;;7.30;;
4468;SDS011;2247;42.666;23.292;2023-04-24T09:50:14;7.90;;;7.10;;
4468;SDS011;2247;42.666;23.292;2023-04-24T09:52:43;9.93;;;6.30;;
4468;SDS011;2247;42.666;23.292;2023-04-24T09:55:18;9.57;;;7.20;;
4468;SDS011;2247;42.666;23.292;2023-04-24T09:57:47;11.53;;;6.60;;
4468;SDS011;2247;42.666;23.292;2023-04-24T10:00:17;14.07;;;6.80;;
4468;SDS011;2247;42.666;23.292;2023-04-24T10:02:49;8.30;;;6.87;;
4468;SDS011;2247;42.666;23.292;2023-04-24T10:05:17;8.33;;;6.40;;
4468;SDS011;2247;42.666;23.292;2023-04-24T10:07:44;13.87;;;5.83;;
4468;SDS011;2247;42.666;23.292;2023-04-24T10:10:11;16.13;;;6.53;;
4468;SDS011;2247;42.666;23.292;2023-04-24T10:12:40;15.83;;;6.13;;
4468;SDS011;2247;42.666;23.292;2023-04-24T10:15:09;10.20;;;6.07;;
4468;SDS011;2247;42.666;23.292;2023-04-24T10:17:38;9.80;;;6.53;;
4468;SDS011;2247;42.666;23.292;2023-04-24T10:20:07;12.53;;;5.50;;
4468;SDS011;2247;42.666;23.292;2023-04-24T10:22:35;6.50;;;5.07;;
4468;SDS011;2247;42.666;23.292;2023-04-24T10:25:04;16.07;;;6.50;;
4468;SDS011;2247;42.666;23.292;2023-04-24T10:27:33;5.70;;;4.90;;
4468;SDS011;2247;42.666;23.292;2023-04-24T10:30:03;16.63;;;6.80;;
4468;SDS011;2247;42.666;23.292;2023-04-24T10:32:31;10.00;;;5.60;;
4468;SDS011;2247;42.666;23.292;2023-04-24T10:34:58;9.00;;;5.73;;
4468;SDS011;2247;42.666;23.292;2023-04-24T10:37:26;6.23;;;4.90;;
4468;SDS011;2247;42.666;23.292;2023-04-24T10:39:53;8.40;;;5.63;;
4468;SDS011;2247;42.666;23.292;2023-04-24T10:42:22;8.97;;;5.27;;
4468;SDS011;2247;42.666;23.292;2023-04-24T10:44:48;6.77;;;5.80;;
4468;SDS011;2247;42.666;23.292;2023-04-24T10:47:17;15.63;;;5.50;;
4468;SDS011;2247;42.666;23.292;2023-04-24T10:49:45;4.67;;;4.27;;
4468;SDS011;2247;42.666;23.292;2023-04-24T10:52:12;4.83;;;4.27;;
4468;SDS011;2247;42.666;23.292;2023-04-24T10:54:42;6.27;;;4.20;;
4468;SDS011;2247;42.666;23.292;2023-04-24T11:00:15;8.87;;;3.87;;
4468;SDS011;2247;42.666;23.292;2023-04-24T11:02:47;8.20;;;4.30;;
4468;SDS011;2247;42.666;23.292;2023-04-24T11:05:15;7.03;;;4.60;;
4468;SDS011;2247;42.666;23.292;2023-04-24T11:10:39;12.27;;;4.67;;
4468;SDS011;2247;42.666;23.292;2023-04-24T11:13:07;8.40;;;5.10;;
4468;SDS011;2247;42.666;23.292;2023-04-24T11:15:34;8.87;;;4.50;;
4468;SDS011;2247;42.666;23.292;2023-04-24T11:18:03;7.80;;;4.50;;
4468;SDS011;2247;42.666;23.292;2023-04-24T11:20:30;13.10;;;4.63;;
4468;SDS011;2247;42.666;23.292;2023-04-24T11:23:00;8.73;;;4.50;;
4468;SDS011;2247;42.666;23.292;2023-04-24T11:25:31;6.77;;;4.37;;
4468;SDS011;2247;42.666;23.292;2023-04-24T11:28:05;10.57;;;4.77;;
4468;SDS011;2247;42.666;23.292;2023-04-24T11:30:32;4.87;;;4.43;;
4468;SDS011;2247;42.666;23.292;2023-04-24T11:33:04;6.70;;;4.40;;
4468;SDS011;2247;42.666;23.292;2023-04-24T11:35:35;3.40;;;3.20;;
4468;SDS011;2247;42.666;23.292;2023-04-24T11:38:05;4.53;;;4.10;;
4468;SDS011;2247;42.666;23.292;2023-04-24T11:40:33;8.03;;;4.10;;
4468;SDS011;2247;42.666;23.292;2023-04-24T11:43:00;5.73;;;5.13;;
4468;SDS011;2247;42.666;23.292;2023-04-24T11:45:27;24.47;;;4.97;;
4468;SDS011;2247;42.666;23.292;2023-04-24T11:47:54;4.90;;;3.90;;
4468;SDS011;2247;42.666;23.292;2023-04-24T11:50:23;5.13;;;4.63;;
4468;SDS011;2247;42.666;23.292;2023-04-24T11:52:53;5.23;;;4.73;;
4468;SDS011;2247;42.666;23.292;2023-04-24T11:55:24;11.87;;;5.13;;
4468;SDS011;2247;42.666;23.292;2023-04-24T11:57:53;5.30;;;4.80;;
4468;SDS011;2247;42.666;23.292;2023-04-24T12:00:23;5.27;;;4.60;;
4468;SDS011;2247;42.666;23.292;2023-04-24T12:03:03;9.87;;;4.93;;
4468;SDS011;2247;42.666;23.292;2023-04-24T12:05:33;5.40;;;4.90;;
4468;SDS011;2247;42.666;23.292;2023-04-24T12:08:00;5.30;;;4.90;;
4468;SDS011;2247;42.666;23.292;2023-04-24T12:10:28;5.33;;;4.83;;
4468;SDS011;2247;42.666;23.292;2023-04-24T12:12:56;6.77;;;4.63;;
4468;SDS011;2247;42.666;23.292;2023-04-24T12:15:24;7.23;;;5.07;;
4468;SDS011;2247;42.666;23.292;2023-04-24T12:17:51;5.17;;;4.67;;
4468;SDS011;2247;42.666;23.292;2023-04-24T12:20:23;9.40;;;5.20;;
4468;SDS011;2247;42.666;23.292;2023-04-24T12:22:53;7.73;;;5.70;;
4468;SDS011;2247;42.666;23.292;2023-04-24T12:25:22;5.33;;;4.83;;
4468;SDS011;2247;42.666;23.292;2023-04-24T12:27:52;5.87;;;3.63;;
4468;SDS011;2247;42.666;23.292;2023-04-24T12:30:20;3.50;;;3.30;;
4468;SDS011;2247;42.666;23.292;2023-04-24T12:32:52;4.20;;;3.83;;
4468;SDS011;2247;42.666;23.292;2023-04-24T12:35:20;7.00;;;4.03;;
4468;SDS011;2247;42.666;23.292;2023-04-24T12:37:48;4.20;;;3.90;;
4468;SDS011;2247;42.666;23.292;2023-04-24T12:40:17;5.03;;;3.90;;
4468;SDS011;2247;42.666;23.292;2023-04-24T12:42:45;4.77;;;3.90;;
4468;SDS011;2247;42.666;23.292;2023-04-24T12:45:14;4.60;;;4.03;;
4468;SDS011;2247;42.666;23.292;2023-04-24T12:47:42;5.80;;;4.73;;
4468;SDS011;2247;42.666;23.292;2023-04-24T12:50:10;8.27;;;4.83;;
4468;SDS011;2247;42.666;23.292;2023-04-24T12:52:37;6.57;;;5.27;;
4468;SDS011;2247;42.666;23.292;2023-04-24T12:55:05;6.07;;;5.47;;
4468;SDS011;2247;42.666;23.292;2023-04-24T12:57:36;7.60;;;5.00;;
4468;SDS011;2247;42.666;23.292;2023-04-24T13:00:04;5.20;;;4.73;;
4468;SDS011;2247;42.666;23.292;2023-04-24T13:02:32;4.87;;;4.37;;
4468;SDS011;2247;42.666;23.292;2023-04-24T13:05:00;5.37;;;4.43;;
4468;SDS011;2247;42.666;23.292;2023-04-24T13:07:27;6.33;;;4.43;;
4468;SDS011;2247;42.666;23.292;2023-04-24T13:09:54;5.30;;;4.20;;
4468;SDS011;2247;42.666;23.292;2023-04-24T13:12:22;7.07;;;4.73;;
4468;SDS011;2247;42.666;23.292;2023-04-24T13:14:52;6.53;;;4.20;;
4468;SDS011;2247;42.666;23.292;2023-04-24T13:19:49;8.40;;;3.90;;
4468;SDS011;2247;42.666;23.292;2023-04-24T13:22:17;4.50;;;4.10;;
4468;SDS011;2247;42.666;23.292;2023-04-24T13:24:44;4.47;;;4.10;;
4468;SDS011;2247;42.666;23.292;2023-04-24T13:27:13;5.33;;;4.57;;
4468;SDS011;2247;42.666;23.292;2023-04-24T13:29:40;4.27;;;3.97;;
4468;SDS011;2247;42.666;23.292;2023-04-24T13:32:09;4.80;;;4.10;;
4468;SDS011;2247;42.666;23.292;2023-04-24T13:34:36;6.30;;;4.30;;
4468;SDS011;2247;42.666;23.292;2023-04-24T13:37:03;6.07;;;4.10;;
4468;SDS011;2247;42.666;23.292;2023-04-24T13:39:30;9.20;;;4.10;;
4468;SDS011;2247;42.666;23.292;2023-04-24T13:41:57;4.70;;;4.30;;
4468;SDS011;2247;42.666;23.292;2023-04-24T13:44:24;6.73;;;4.60;;
4468;SDS011;2247;42.666;23.292;2023-04-24T13:46:52;4.87;;;4.27;;
4468;SDS011;2247;42.666;23.292;2023-04-24T13:49:23;6.17;;;4.30;;
4468;SDS011;2247;42.666;23.292;2023-04-24T13:51:51;4.90;;;4.33;;
4468;SDS011;2247;42.666;23.292;2023-04-24T13:54:19;4.10;;;3.70;;
4468;SDS011;2247;42.666;23.292;2023-04-24T13:56:48;11.10;;;4.20;;
4468;SDS011;2247;42.666;23.292;2023-04-24T13:59:15;4.93;;;3.70;;
4468;SDS011;2247;42.666;23.292;2023-04-24T14:01:42;5.20;;;4.40;;
4468;SDS011;2247;42.666;23.292;2023-04-24T14:04:10;9.43;;;3.93;;
4468;SDS011;2247;42.666;23.292;2023-04-24T14:06:38;10.23;;;4.30;;
4468;SDS011;2247;42.666;23.292;2023-04-24T14:09:05;13.00;;;4.43;;
4468;SDS011;2247;42.666;23.292;2023-04-24T14:11:33;6.57;;;4.00;;
4468;SDS011;2247;42.666;23.292;2023-04-24T14:14:00;5.10;;;4.57;;
4468;SDS011;2247;42.666;23.292;2023-04-24T14:16:28;5.03;;;4.10;;
4468;SDS011;2247;42.666;23.292;2023-04-24T14:18:55;7.57;;;3.97;;
4468;SDS011;2247;42.666;23.292;2023-04-24T14:21:22;5.80;;;4.20;;
4468;SDS011;2247;42.666;23.292;2023-04-24T14:23:51;5.47;;;4.43;;
4468;SDS011;2247;42.666;23.292;2023-04-24T14:26:18;9.63;;;5.30;;
4468;SDS011;2247;42.666;23.292;2023-04-24T14:28:46;4.53;;;4.13;;
4468;SDS011;2247;42.666;23.292;2023-04-24T14:31:13;6.97;;;4.07;;
4468;SDS011;2247;42.666;23.292;2023-04-24T14:33:40;7.30;;;4.90;;
4468;SDS011;2247;42.666;23.292;2023-04-24T14:36:07;6.30;;;4.53;;
4468;SDS011;2247;42.666;23.292;2023-04-24T14:38:34;6.73;;;4.63;;
4468;SDS011;2247;42.666;23.292;2023-04-24T14:41:02;5.07;;;4.60;;
4468;SDS011;2247;42.666;23.292;2023-04-24T14:43:34;5.20;;;4.70;;
4468;SDS011;2247;42.666;23.292;2023-04-24T14:46:01;13.43;;;4.80;;
4468;SDS011;2247;42.666;23.292;2023-04-24T14:48:28;8.27;;;4.50;;
4468;SDS011;2247;42.666;23.292;2023-04-24T14:50:55;5.33;;;4.73;;
4468;SDS011;2247;42.666;23.292;2023-04-24T14:53:22;5.93;;;4.57;;
4468;SDS011;2247;42.666;23.292;2023-04-24T14:55:49;5.87;;;4.50;;
4468;SDS011;2247;42.666;23.292;2023-04-24T14:58:18;7.50;;;4.73;;
4468;SDS011;2247;42.666;23.292;2023-04-24T15:00:45;5.67;;;4.30;;
4468;SDS011;2247;42.666;23.292;2023-04-24T15:03:12;7.93;;;4.77;;
4468;SDS011;2247;42.666;23.292;2023-04-24T15:05:38;7.70;;;5.00;;